createdAt,value
2023-01-07T00:00:00.544Z,9.60
2023-01-07T00:00:46.384Z,9.50
2023-01-07T00:01:32.398Z,9.50
2023-01-07T00:02:18.407Z,9.50
2023-01-07T00:03:04.580Z,9.50
2023-01-07T00:03:50.475Z,9.50
2023-01-07T00:04:36.361Z,9.50
2023-01-07T00:05:22.366Z,9.50
2023-01-07T00:06:08.350Z,9.50
2023-01-07T00:06:54.352Z,9.50
2023-01-07T00:07:40.564Z,9.50
2023-01-07T00:08:26.358Z,9.50
2023-01-07T00:09:12.339Z,9.50
2023-01-07T00:09:58.377Z,9.50
2023-01-07T00:10:44.381Z,9.50
2023-01-07T00:11:30.326Z,9.50
2023-01-07T00:12:16.360Z,9.50
2023-01-07T00:13:02.400Z,9.50
2023-01-07T00:13:48.353Z,9.50
2023-01-07T00:14:34.347Z,9.50
2023-01-07T00:15:21.224Z,9.50
2023-01-07T00:16:06.491Z,9.50
2023-01-07T00:16:52.394Z,9.50
2023-01-07T00:17:38.419Z,9.50
2023-01-07T00:18:24.375Z,9.50
2023-01-07T00:19:10.477Z,9.50
2023-01-07T00:19:56.391Z,9.50
2023-01-07T00:20:42.336Z,9.50
2023-01-07T00:21:28.358Z,9.50
2023-01-07T00:22:14.377Z,9.50
2023-01-07T00:23:00.419Z,9.50
2023-01-07T00:23:46.357Z,9.50
2023-01-07T00:24:32.458Z,9.50
2023-01-07T00:25:18.395Z,9.50
2023-01-07T00:26:04.525Z,9.50
2023-01-07T00:26:50.418Z,9.50
2023-01-07T00:27:36.438Z,9.50
2023-01-07T00:28:22.360Z,9.50
2023-01-07T00:29:08.400Z,9.50
2023-01-07T00:29:54.349Z,9.50
2023-01-07T00:30:40.691Z,9.50
2023-01-07T00:31:26.496Z,9.50
2023-01-07T00:32:12.386Z,9.50
2023-01-07T00:32:58.386Z,9.50
2023-01-07T00:33:44.467Z,9.40
2023-01-07T00:34:30.436Z,9.40
2023-01-07T00:35:16.373Z,9.40
2023-01-07T00:36:02.493Z,9.40
2023-01-07T00:36:48.452Z,9.40
2023-01-07T00:37:34.396Z,9.40
2023-01-07T00:38:21.170Z,9.40
2023-01-07T00:39:06.414Z,9.40
2023-01-07T00:39:52.418Z,9.40
2023-01-07T00:40:38.422Z,9.40
2023-01-07T00:41:24.497Z,9.40
2023-01-07T00:42:10.619Z,9.40
2023-01-07T00:42:56.439Z,9.40
2023-01-07T00:43:42.464Z,9.40
2023-01-07T00:44:28.420Z,9.40
2023-01-07T00:45:14.608Z,9.40
2023-01-07T00:46:00.463Z,9.40
2023-01-07T00:46:46.511Z,9.40
2023-01-07T00:47:32.497Z,9.40
2023-01-07T00:48:18.476Z,9.40
2023-01-07T00:49:04.452Z,9.30
2023-01-07T00:49:50.474Z,9.30
2023-01-07T00:50:36.448Z,9.30
2023-01-07T00:51:22.477Z,9.30
2023-01-07T00:52:08.462Z,9.30
2023-01-07T00:52:54.474Z,9.30
2023-01-07T00:53:40.793Z,9.30
2023-01-07T00:54:26.488Z,9.30
2023-01-07T00:55:12.474Z,9.30
2023-01-07T00:55:58.460Z,9.30
2023-01-07T00:56:44.564Z,9.30
2023-01-07T00:57:30.456Z,9.30
2023-01-07T00:58:16.430Z,9.30
2023-01-07T00:59:02.529Z,9.30
2023-01-07T00:59:48.497Z,9.30
2023-01-07T01:00:34.575Z,9.30
2023-01-07T01:01:21.263Z,9.30
2023-01-07T01:02:06.777Z,9.30
2023-01-07T01:02:52.638Z,9.30
2023-01-07T01:03:38.565Z,9.30
2023-01-07T01:04:24.476Z,9.30
2023-01-07T01:05:10.643Z,9.30
2023-01-07T01:05:56.565Z,9.30
2023-01-07T01:06:42.490Z,9.30
2023-01-07T01:07:28.531Z,9.30
2023-01-07T01:08:14.561Z,9.30
2023-01-07T01:09:00.514Z,9.30
2023-01-07T01:09:46.535Z,9.30
2023-01-07T01:10:32.706Z,9.30
2023-01-07T01:11:18.701Z,9.30
2023-01-07T01:12:04.564Z,9.30
2023-01-07T01:12:50.610Z,9.30
2023-01-07T01:13:36.633Z,9.20
2023-01-07T01:14:22.609Z,9.20
2023-01-07T01:15:08.702Z,9.20
2023-01-07T01:15:54.711Z,9.20
2023-01-07T01:16:40.869Z,9.20
2023-01-07T01:17:26.701Z,9.20
2023-01-07T01:18:12.569Z,9.20
2023-01-07T01:18:58.736Z,9.20
2023-01-07T01:19:44.707Z,9.20
2023-01-07T01:20:30.641Z,9.20
2023-01-07T01:21:16.600Z,9.20
2023-01-07T01:22:02.678Z,9.20
2023-01-07T01:22:48.625Z,9.20
2023-01-07T01:23:34.626Z,9.20
2023-01-07T01:24:21.394Z,9.20
2023-01-07T01:25:06.617Z,9.20
2023-01-07T01:25:52.620Z,9.20
2023-01-07T01:26:38.633Z,9.20
2023-01-07T01:27:24.598Z,9.20
2023-01-07T01:28:10.758Z,9.20
2023-01-07T01:28:56.629Z,9.20
2023-01-07T01:29:42.565Z,9.20
2023-01-07T01:30:28.641Z,9.20
2023-01-07T01:31:14.670Z,9.20
2023-01-07T01:32:00.654Z,9.20
2023-01-07T01:32:46.642Z,9.20
2023-01-07T01:33:32.635Z,9.20
2023-01-07T01:34:18.655Z,9.20
2023-01-07T01:35:04.596Z,9.20
2023-01-07T01:35:50.727Z,9.20
2023-01-07T01:36:36.733Z,9.20
2023-01-07T01:37:22.589Z,9.20
2023-01-07T01:38:08.694Z,9.20
2023-01-07T01:38:54.709Z,9.20
2023-01-07T01:39:40.840Z,9.20
2023-01-07T01:40:26.653Z,9.20
2023-01-07T01:41:12.657Z,9.20
2023-01-07T01:41:58.614Z,9.20
2023-01-07T01:42:44.654Z,9.10
2023-01-07T01:43:30.675Z,9.10
2023-01-07T01:44:16.794Z,9.10
2023-01-07T01:45:02.790Z,9.10
2023-01-07T01:45:48.661Z,9.10
2023-01-07T01:46:34.668Z,9.10
2023-01-07T01:47:21.444Z,9.10
2023-01-07T01:48:06.689Z,9.10
2023-01-07T01:48:52.694Z,9.10
2023-01-07T01:49:38.652Z,9.10
2023-01-07T01:50:24.567Z,9.10
2023-01-07T01:51:10.777Z,9.10
2023-01-07T01:51:56.656Z,9.10
2023-01-07T01:52:42.693Z,9.10
2023-01-07T01:53:28.647Z,9.10
2023-01-07T01:54:14.818Z,9.10
2023-01-07T01:54:59.942Z,9.10
2023-01-07T01:55:46.704Z,9.10
2023-01-07T01:56:32.707Z,9.10
2023-01-07T01:57:18.658Z,9.10
2023-01-07T01:58:04.647Z,9.00
2023-01-07T01:58:50.693Z,9.00
2023-01-07T01:59:36.670Z,9.00
2023-01-07T02:00:22.699Z,9.00
2023-01-07T02:01:08.898Z,9.00
2023-01-07T02:01:54.856Z,9.00
2023-01-07T02:02:40.940Z,9.00
2023-01-07T02:03:26.679Z,9.00
2023-01-07T02:04:12.728Z,9.00
2023-01-07T02:04:58.669Z,9.00
2023-01-07T02:05:44.743Z,9.00
2023-01-07T02:06:30.696Z,9.00
2023-01-07T02:07:16.690Z,9.00
2023-01-07T02:08:02.797Z,9.00
2023-01-07T02:08:48.772Z,9.10
2023-01-07T02:09:34.688Z,9.10
2023-01-07T02:10:21.303Z,9.10
2023-01-07T02:11:06.896Z,9.10
2023-01-07T02:11:52.738Z,9.10
2023-01-07T02:12:38.768Z,9.10
2023-01-07T02:13:24.656Z,9.10
2023-01-07T02:14:10.866Z,9.10
2023-01-07T02:14:56.752Z,9.10
2023-01-07T02:15:42.922Z,9.10
2023-01-07T02:16:28.862Z,9.10
2023-01-07T02:17:14.855Z,9.10
2023-01-07T02:18:00.734Z,9.10
2023-01-07T02:18:46.733Z,9.10
2023-01-07T02:19:32.814Z,9.10
2023-01-07T02:20:18.756Z,9.10
2023-01-07T02:21:04.723Z,9.10
2023-01-07T02:21:50.815Z,9.10
2023-01-07T02:22:36.776Z,9.10
2023-01-07T02:23:22.801Z,9.10
2023-01-07T02:24:08.839Z,9.10
2023-01-07T02:24:54.762Z,9.10
2023-01-07T02:25:41.026Z,9.10
2023-01-07T02:26:26.901Z,9.10
2023-01-07T02:27:12.729Z,9.10
2023-01-07T02:27:58.846Z,9.10
2023-01-07T02:28:44.775Z,9.10
2023-01-07T02:29:30.681Z,9.10
2023-01-07T02:30:16.951Z,9.10
2023-01-07T02:31:02.784Z,9.10
2023-01-07T02:31:48.837Z,9.10
2023-01-07T02:32:34.671Z,9.10
2023-01-07T02:33:21.392Z,9.10
2023-01-07T02:34:06.787Z,9.10
2023-01-07T02:34:52.752Z,9.10
2023-01-07T02:35:38.782Z,9.10
2023-01-07T02:36:24.731Z,9.10
2023-01-07T02:37:10.918Z,9.10
2023-01-07T02:37:56.808Z,9.10
2023-01-07T02:38:42.882Z,9.10
2023-01-07T02:39:28.747Z,9.10
2023-01-07T02:40:14.839Z,9.10
2023-01-07T02:41:00.846Z,9.10
2023-01-07T02:41:46.951Z,9.10
2023-01-07T02:42:32.859Z,9.10
2023-01-07T02:43:18.792Z,9.10
2023-01-07T02:44:04.725Z,9.10
2023-01-07T02:44:50.875Z,9.10
2023-01-07T02:45:36.941Z,9.10
2023-01-07T02:46:22.800Z,9.10
2023-01-07T02:47:08.794Z,9.10
2023-01-07T02:47:54.807Z,9.10
2023-01-07T02:48:41.025Z,9.10
2023-01-07T02:49:26.864Z,9.10
2023-01-07T02:50:12.744Z,9.10
2023-01-07T02:50:59.014Z,9.10
2023-01-07T02:51:44.827Z,9.10
2023-01-07T02:52:30.779Z,9.10
2023-01-07T02:53:16.805Z,9.10
2023-01-07T02:54:02.817Z,9.10
2023-01-07T02:54:48.784Z,9.10
2023-01-07T02:55:34.834Z,9.10
2023-01-07T02:56:21.584Z,9.10
2023-01-07T02:57:06.801Z,9.10
2023-01-07T02:57:52.800Z,9.10
2023-01-07T02:58:38.865Z,9.10
2023-01-07T02:59:24.782Z,9.10
2023-01-07T03:00:11.165Z,9.10
2023-01-07T03:00:56.977Z,9.10
2023-01-07T03:01:43.005Z,9.10
2023-01-07T03:02:28.911Z,9.10
2023-01-07T03:03:14.926Z,9.10
2023-01-07T03:04:00.969Z,9.10
2023-01-07T03:04:46.816Z,9.10
2023-01-07T03:05:32.954Z,9.10
2023-01-07T03:06:19.015Z,9.10
2023-01-07T03:07:04.853Z,9.10
2023-01-07T03:07:51.007Z,9.10
2023-01-07T03:08:36.890Z,9.10
2023-01-07T03:09:22.897Z,9.10
2023-01-07T03:10:08.826Z,9.10
2023-01-07T03:10:54.843Z,9.10
2023-01-07T03:11:41.041Z,9.10
2023-01-07T03:12:26.880Z,9.10
2023-01-07T03:13:12.881Z,9.10
2023-01-07T03:13:58.806Z,9.10
2023-01-07T03:14:44.839Z,9.10
2023-01-07T03:15:30.970Z,9.10
2023-01-07T03:16:16.960Z,9.10
2023-01-07T03:17:02.955Z,9.10
2023-01-07T03:17:48.847Z,9.10
2023-01-07T03:18:34.803Z,9.10
2023-01-07T03:19:21.495Z,9.00
2023-01-07T03:20:06.859Z,9.00
2023-01-07T03:20:52.904Z,9.00
2023-01-07T03:21:38.910Z,9.00
2023-01-07T03:22:24.881Z,9.00
2023-01-07T03:23:11.043Z,9.00
2023-01-07T03:23:56.896Z,9.00
2023-01-07T03:24:42.938Z,9.00
2023-01-07T03:25:28.838Z,9.00
2023-01-07T03:26:14.876Z,9.00
2023-01-07T03:27:00.873Z,9.00
2023-01-07T03:27:46.955Z,9.00
2023-01-07T03:28:32.914Z,9.00
2023-01-07T03:29:18.917Z,9.00
2023-01-07T03:30:04.948Z,9.00
2023-01-07T03:30:50.929Z,9.00
2023-01-07T03:31:36.932Z,9.00
2023-01-07T03:32:22.841Z,9.00
2023-01-07T03:33:08.998Z,9.00
2023-01-07T03:33:54.878Z,9.00
2023-01-07T03:34:41.068Z,9.00
2023-01-07T03:35:26.886Z,9.00
2023-01-07T03:36:12.862Z,9.00
2023-01-07T03:36:58.854Z,9.00
2023-01-07T03:37:44.892Z,9.00
2023-01-07T03:38:30.983Z,9.00
2023-01-07T03:39:16.916Z,9.00
2023-01-07T03:40:02.943Z,9.00
2023-01-07T03:40:48.893Z,9.00
2023-01-07T03:41:34.912Z,9.00
2023-01-07T03:42:21.715Z,9.00
2023-01-07T03:43:06.955Z,9.00
2023-01-07T03:43:52.909Z,9.00
2023-01-07T03:44:38.951Z,9.00
2023-01-07T03:45:24.949Z,9.00
2023-01-07T03:46:11.239Z,9.00
2023-01-07T03:46:56.992Z,9.00
2023-01-07T03:47:42.902Z,9.00
2023-01-07T03:48:28.905Z,9.00
2023-01-07T03:49:14.903Z,9.00
2023-01-07T03:50:00.900Z,9.00
2023-01-07T03:50:46.900Z,9.00
2023-01-07T03:51:32.909Z,9.00
2023-01-07T03:52:18.902Z,9.00
2023-01-07T03:53:04.868Z,9.00
2023-01-07T03:53:50.959Z,9.00
2023-01-07T03:54:37.056Z,9.00
2023-01-07T03:55:22.892Z,9.00
2023-01-07T03:56:08.942Z,9.10
2023-01-07T03:56:54.861Z,9.10
2023-01-07T03:57:41.028Z,9.10
2023-01-07T03:58:26.939Z,9.10
2023-01-07T03:59:12.936Z,9.00
2023-01-07T03:59:58.913Z,9.00
2023-01-07T04:00:45.085Z,9.00
2023-01-07T04:01:31.048Z,9.00
2023-01-07T04:02:16.946Z,9.00
2023-01-07T04:03:03.124Z,9.00
2023-01-07T04:03:48.931Z,9.00
2023-01-07T04:04:34.947Z,9.00
2023-01-07T04:05:21.508Z,9.00
2023-01-07T04:06:06.894Z,9.00
2023-01-07T04:06:52.893Z,9.00
2023-01-07T04:07:38.963Z,9.00
2023-01-07T04:08:24.913Z,9.00
2023-01-07T04:09:11.124Z,9.00
2023-01-07T04:09:56.975Z,9.00
2023-01-07T04:10:42.904Z,9.00
2023-01-07T04:11:28.928Z,9.00
2023-01-07T04:12:15.017Z,9.00
2023-01-07T04:13:00.983Z,9.00
2023-01-07T04:13:46.961Z,9.00
2023-01-07T04:14:33.017Z,9.00
2023-01-07T04:15:19.070Z,9.00
2023-01-07T04:16:05.025Z,9.00
2023-01-07T04:16:51.101Z,9.00
2023-01-07T04:17:36.918Z,9.00
2023-01-07T04:18:22.955Z,9.00
2023-01-07T04:19:09.020Z,9.00
2023-01-07T04:19:54.961Z,9.00
2023-01-07T04:20:41.085Z,9.00
2023-01-07T04:21:27.036Z,9.00
2023-01-07T04:22:12.932Z,9.00
2023-01-07T04:22:59.030Z,9.10
2023-01-07T04:23:44.995Z,9.10
2023-01-07T04:24:30.946Z,9.10
2023-01-07T04:25:17.021Z,9.10
2023-01-07T04:26:02.977Z,9.10
2023-01-07T04:26:49.048Z,9.10
2023-01-07T04:27:34.944Z,9.10
2023-01-07T04:28:21.436Z,9.10
2023-01-07T04:29:06.999Z,9.10
2023-01-07T04:29:52.999Z,9.10
2023-01-07T04:30:39.079Z,9.00
2023-01-07T04:31:24.954Z,9.00
2023-01-07T04:32:11.155Z,9.00
2023-01-07T04:32:57.032Z,9.00
2023-01-07T04:33:42.995Z,9.00
2023-01-07T04:34:28.976Z,9.00
2023-01-07T04:35:15.049Z,9.00
2023-01-07T04:36:01.197Z,9.00
2023-01-07T04:36:47.054Z,9.10
2023-01-07T04:37:33.102Z,9.10
2023-01-07T04:38:19.030Z,9.10
2023-01-07T04:39:05.020Z,9.10
2023-01-07T04:39:51.045Z,9.10
2023-01-07T04:40:36.996Z,9.10
2023-01-07T04:41:23.052Z,9.10
2023-01-07T04:42:09.039Z,9.10
2023-01-07T04:42:55.006Z,9.10
2023-01-07T04:43:41.183Z,9.10
2023-01-07T04:44:27.152Z,9.00
2023-01-07T04:45:13.146Z,9.00
2023-01-07T04:45:59.224Z,9.00
2023-01-07T04:46:45.162Z,9.00
2023-01-07T04:47:31.070Z,9.00
2023-01-07T04:48:17.092Z,9.00
2023-01-07T04:49:03.155Z,9.00
2023-01-07T04:49:49.095Z,9.00
2023-01-07T04:50:35.047Z,9.00
2023-01-07T04:51:21.532Z,9.00
2023-01-07T04:52:07.078Z,9.00
2023-01-07T04:52:53.061Z,9.00
2023-01-07T04:53:39.089Z,9.00
2023-01-07T04:54:25.069Z,9.00
2023-01-07T04:55:11.227Z,9.00
2023-01-07T04:55:57.127Z,9.00
2023-01-07T04:56:43.089Z,9.00
2023-01-07T04:57:29.048Z,9.00
2023-01-07T04:58:15.062Z,9.00
2023-01-07T04:59:01.089Z,9.00
2023-01-07T04:59:47.055Z,9.00
2023-01-07T05:00:33.196Z,9.00
2023-01-07T05:01:19.246Z,9.00
2023-01-07T05:02:05.268Z,9.00
2023-01-07T05:02:51.155Z,9.00
2023-01-07T05:03:37.064Z,9.00
2023-01-07T05:04:23.160Z,9.00
2023-01-07T05:05:09.175Z,9.00
2023-01-07T05:05:55.073Z,9.00
2023-01-07T05:06:41.227Z,9.00
2023-01-07T05:07:27.101Z,9.00
2023-01-07T05:08:13.100Z,9.00
2023-01-07T05:08:59.103Z,9.00
2023-01-07T05:09:45.049Z,9.00
2023-01-07T05:10:31.144Z,9.10
2023-01-07T05:11:17.192Z,9.00
2023-01-07T05:12:03.185Z,9.10
2023-01-07T05:12:49.134Z,9.10
2023-01-07T05:13:35.069Z,9.10
2023-01-07T05:14:21.454Z,9.10
2023-01-07T05:15:07.209Z,9.10
2023-01-07T05:15:53.148Z,9.10
2023-01-07T05:16:39.171Z,9.10
2023-01-07T05:17:25.069Z,9.10
2023-01-07T05:18:11.257Z,9.10
2023-01-07T05:18:57.145Z,9.10
2023-01-07T05:19:43.157Z,9.10
2023-01-07T05:20:29.118Z,9.10
2023-01-07T05:21:15.113Z,9.10
2023-01-07T05:22:01.242Z,9.10
2023-01-07T05:22:47.714Z,9.10
2023-01-07T05:23:33.224Z,9.10
2023-01-07T05:24:19.133Z,9.10
2023-01-07T05:25:05.122Z,9.10
2023-01-07T05:25:51.192Z,9.10
2023-01-07T05:26:37.123Z,9.10
2023-01-07T05:27:23.128Z,9.20
2023-01-07T05:28:09.212Z,9.20
2023-01-07T05:28:55.142Z,9.20
2023-01-07T05:29:41.287Z,9.20
2023-01-07T05:30:27.245Z,9.20
2023-01-07T05:31:13.243Z,9.20
2023-01-07T05:31:59.151Z,9.20
2023-01-07T05:32:45.167Z,9.20
2023-01-07T05:33:31.171Z,9.20
2023-01-07T05:34:17.157Z,9.20
2023-01-07T05:35:03.239Z,9.20
2023-01-07T05:35:49.199Z,9.20
2023-01-07T05:36:35.282Z,9.20
2023-01-07T05:37:21.435Z,9.20
2023-01-07T05:38:07.239Z,9.20
2023-01-07T05:38:53.208Z,9.20
2023-01-07T05:39:39.304Z,9.10
2023-01-07T05:40:25.163Z,9.10
2023-01-07T05:41:11.379Z,9.10
2023-01-07T05:41:57.166Z,9.10
2023-01-07T05:42:43.187Z,9.10
2023-01-07T05:43:29.146Z,9.10
2023-01-07T05:44:15.195Z,9.10
2023-01-07T05:45:01.680Z,9.10
2023-01-07T05:45:47.274Z,9.10
2023-01-07T05:46:33.338Z,9.10
2023-01-07T05:47:19.225Z,9.10
2023-01-07T05:48:05.205Z,9.10
2023-01-07T05:48:51.230Z,9.10
2023-01-07T05:49:37.178Z,9.10
2023-01-07T05:50:23.161Z,9.10
2023-01-07T05:51:09.224Z,9.10
2023-01-07T05:51:55.227Z,9.10
2023-01-07T05:52:41.326Z,9.10
2023-01-07T05:53:27.187Z,9.10
2023-01-07T05:54:13.187Z,9.10
2023-01-07T05:54:59.173Z,9.10
2023-01-07T05:55:45.189Z,9.00
2023-01-07T05:56:31.256Z,9.00
2023-01-07T05:57:17.242Z,9.00
2023-01-07T05:58:03.248Z,9.00
2023-01-07T05:58:49.218Z,9.00
2023-01-07T05:59:35.184Z,9.10
2023-01-07T06:00:21.715Z,9.10
2023-01-07T06:01:07.270Z,9.10
2023-01-07T06:01:53.261Z,9.10
2023-01-07T06:02:39.214Z,9.10
2023-01-07T06:03:25.206Z,9.10
2023-01-07T06:04:11.438Z,9.10
2023-01-07T06:04:57.312Z,9.20
2023-01-07T06:05:43.297Z,9.20
2023-01-07T06:06:29.206Z,9.20
2023-01-07T06:07:15.245Z,9.20
2023-01-07T06:08:01.628Z,9.20
2023-01-07T06:08:47.290Z,9.20
2023-01-07T06:09:33.326Z,9.20
2023-01-07T06:10:19.265Z,9.20
2023-01-07T06:11:05.202Z,9.20
2023-01-07T06:11:51.294Z,9.20
2023-01-07T06:12:37.260Z,9.20
2023-01-07T06:13:23.241Z,9.20
2023-01-07T06:14:09.267Z,9.20
2023-01-07T06:14:55.213Z,9.20
2023-01-07T06:15:41.484Z,9.20
2023-01-07T06:16:27.310Z,9.20
2023-01-07T06:17:13.336Z,9.20
2023-01-07T06:17:59.249Z,9.20
2023-01-07T06:18:45.258Z,9.20
2023-01-07T06:19:31.282Z,9.20
2023-01-07T06:20:17.290Z,9.20
2023-01-07T06:21:03.415Z,9.20
2023-01-07T06:21:49.272Z,9.20
2023-01-07T06:22:35.262Z,9.20
2023-01-07T06:23:21.411Z,9.20
2023-01-07T06:24:07.258Z,9.20
2023-01-07T06:24:53.268Z,9.20
2023-01-07T06:25:39.326Z,9.20
2023-01-07T06:26:25.251Z,9.20
2023-01-07T06:27:11.380Z,9.20
2023-01-07T06:27:57.283Z,9.20
2023-01-07T06:28:43.312Z,9.20
2023-01-07T06:29:29.286Z,9.20
2023-01-07T06:30:15.351Z,9.20
2023-01-07T06:31:01.400Z,9.20
2023-01-07T06:31:47.302Z,9.20
2023-01-07T06:32:33.418Z,9.20
2023-01-07T06:33:19.300Z,9.20
2023-01-07T06:34:05.287Z,9.20
2023-01-07T06:34:51.319Z,9.20
2023-01-07T06:35:37.253Z,9.20
2023-01-07T06:36:23.287Z,9.10
2023-01-07T06:37:09.386Z,9.10
2023-01-07T06:37:55.314Z,9.10
2023-01-07T06:38:41.412Z,9.10
2023-01-07T06:39:27.348Z,9.10
2023-01-07T06:40:13.351Z,9.10
2023-01-07T06:40:59.315Z,9.10
2023-01-07T06:41:45.377Z,9.10
2023-01-07T06:42:31.292Z,9.10
2023-01-07T06:43:17.331Z,9.10
2023-01-07T06:44:03.414Z,9.10
2023-01-07T06:44:49.330Z,9.10
2023-01-07T06:45:35.375Z,9.10
2023-01-07T06:46:21.579Z,9.10
2023-01-07T06:47:07.325Z,9.10
2023-01-07T06:47:53.313Z,9.10
2023-01-07T06:48:39.344Z,9.10
2023-01-07T06:49:25.336Z,9.10
2023-01-07T06:50:11.406Z,9.10
2023-01-07T06:50:57.439Z,9.10
2023-01-07T06:51:43.371Z,9.10
2023-01-07T06:52:29.305Z,9.10
2023-01-07T06:53:15.341Z,9.10
2023-01-07T06:54:01.369Z,9.10
2023-01-07T06:54:48.576Z,9.10
2023-01-07T06:55:33.424Z,9.10
2023-01-07T06:56:19.364Z,9.10
2023-01-07T06:57:05.350Z,9.10
2023-01-07T06:57:51.403Z,9.10
2023-01-07T06:58:37.321Z,9.10
2023-01-07T06:59:23.311Z,9.10
2023-01-07T07:00:09.472Z,9.10
2023-01-07T07:00:55.474Z,9.10
2023-01-07T07:01:41.635Z,9.10
2023-01-07T07:02:27.612Z,9.10
2023-01-07T07:03:13.431Z,9.10
2023-01-07T07:03:59.365Z,9.10
2023-01-07T07:04:45.363Z,9.10
2023-01-07T07:05:31.356Z,9.10
2023-01-07T07:06:17.432Z,9.10
2023-01-07T07:07:03.419Z,9.10
2023-01-07T07:07:49.408Z,9.10
2023-01-07T07:08:35.346Z,9.10
2023-01-07T07:09:21.675Z,9.10
2023-01-07T07:10:07.540Z,9.10
2023-01-07T07:10:53.364Z,9.10
2023-01-07T07:11:39.396Z,9.10
2023-01-07T07:12:25.382Z,9.10
2023-01-07T07:13:11.444Z,9.10
2023-01-07T07:13:57.421Z,9.20
2023-01-07T07:14:43.401Z,9.10
2023-01-07T07:15:29.501Z,9.10
2023-01-07T07:16:15.509Z,9.20
2023-01-07T07:17:01.419Z,9.20
2023-01-07T07:17:46.727Z,9.20
2023-01-07T07:18:33.458Z,9.20
2023-01-07T07:19:19.463Z,9.20
2023-01-07T07:20:05.400Z,9.20
2023-01-07T07:20:51.543Z,9.20
2023-01-07T07:21:37.415Z,9.20
2023-01-07T07:22:23.449Z,9.20
2023-01-07T07:23:09.451Z,9.20
2023-01-07T07:23:55.410Z,9.20
2023-01-07T07:24:41.480Z,9.20
2023-01-07T07:25:27.480Z,9.20
2023-01-07T07:26:13.483Z,9.20
2023-01-07T07:26:59.512Z,9.20
2023-01-07T07:27:45.457Z,9.10
2023-01-07T07:28:31.430Z,9.10
2023-01-07T07:29:17.501Z,9.10
2023-01-07T07:30:03.568Z,9.10
2023-01-07T07:30:49.492Z,9.10
2023-01-07T07:31:34.897Z,9.10
2023-01-07T07:32:21.668Z,9.10
2023-01-07T07:33:07.588Z,9.10
2023-01-07T07:33:53.436Z,9.10
2023-01-07T07:34:39.548Z,9.10
2023-01-07T07:35:25.438Z,9.10
2023-01-07T07:36:11.474Z,9.10
2023-01-07T07:36:57.474Z,9.10
2023-01-07T07:37:43.435Z,9.10
2023-01-07T07:38:29.517Z,9.10
2023-01-07T07:39:15.493Z,9.10
2023-01-07T07:40:01.455Z,9.10
2023-01-07T07:40:47.507Z,9.10
2023-01-07T07:41:33.549Z,9.10
2023-01-07T07:42:19.499Z,9.10
2023-01-07T07:43:10.833Z,9.10
2023-01-07T07:43:51.551Z,9.10
2023-01-07T07:44:37.504Z,9.10
2023-01-07T07:45:23.634Z,9.10
2023-01-07T07:46:09.629Z,9.10
2023-01-07T07:46:55.673Z,9.10
2023-01-07T07:47:41.555Z,9.10
2023-01-07T07:48:27.626Z,9.10
2023-01-07T07:49:13.632Z,9.10
2023-01-07T07:49:59.599Z,9.10
2023-01-07T07:50:45.569Z,9.10
2023-01-07T07:51:31.608Z,9.10
2023-01-07T07:52:17.597Z,9.10
2023-01-07T07:53:03.700Z,9.10
2023-01-07T07:53:49.620Z,9.10
2023-01-07T07:54:35.689Z,9.10
2023-01-07T07:55:26.312Z,9.10
2023-01-07T07:56:07.550Z,9.10
2023-01-07T07:56:53.653Z,9.10
2023-01-07T07:57:39.631Z,9.10
2023-01-07T07:58:25.575Z,9.10
2023-01-07T07:59:11.756Z,9.10
2023-01-07T07:59:57.656Z,9.10
2023-01-07T08:00:43.727Z,9.10
2023-01-07T08:01:29.853Z,9.10
2023-01-07T08:02:15.634Z,9.10
2023-01-07T08:03:02.001Z,9.10
2023-01-07T08:03:47.739Z,9.10
2023-01-07T08:04:33.644Z,9.10
2023-01-07T08:05:19.721Z,9.10
2023-01-07T08:06:05.569Z,9.10
2023-01-07T08:06:51.718Z,9.10
2023-01-07T08:07:37.799Z,9.10
2023-01-07T08:08:23.632Z,9.10
2023-01-07T08:09:09.652Z,9.10
2023-01-07T08:09:55.637Z,9.10
2023-01-07T08:10:41.680Z,9.10
2023-01-07T08:11:27.674Z,9.10
2023-01-07T08:12:13.613Z,9.10
2023-01-07T08:12:59.603Z,9.10
2023-01-07T08:13:45.608Z,9.10
2023-01-07T08:14:31.680Z,9.10
2023-01-07T08:15:17.729Z,9.10
2023-01-07T08:16:03.728Z,9.10
2023-01-07T08:16:49.692Z,9.10
2023-01-07T08:17:35.643Z,9.10
2023-01-07T08:18:21.791Z,9.10
2023-01-07T08:19:07.699Z,9.10
2023-01-07T08:19:53.671Z,9.10
2023-01-07T08:20:39.800Z,9.20
2023-01-07T08:21:25.617Z,9.20
2023-01-07T08:22:11.668Z,9.20
2023-01-07T08:22:57.684Z,9.20
2023-01-07T08:23:43.691Z,9.20
2023-01-07T08:24:29.645Z,9.20
2023-01-07T08:25:15.659Z,9.20
2023-01-07T08:26:01.721Z,9.20
2023-01-07T08:26:47.723Z,9.20
2023-01-07T08:27:33.763Z,9.20
2023-01-07T08:28:19.698Z,9.20
2023-01-07T08:29:05.637Z,9.20
2023-01-07T08:29:51.742Z,9.20
2023-01-07T08:30:37.754Z,9.20
2023-01-07T08:31:23.716Z,9.20
2023-01-07T08:32:09.663Z,9.20
2023-01-07T08:32:55.755Z,9.20
2023-01-07T08:33:41.704Z,9.20
2023-01-07T08:34:27.711Z,9.20
2023-01-07T08:35:13.721Z,9.20
2023-01-07T08:35:59.736Z,9.20
2023-01-07T08:36:45.753Z,9.20
2023-01-07T08:37:31.730Z,9.20
2023-01-07T08:38:17.713Z,9.20
2023-01-07T08:39:03.793Z,9.20
2023-01-07T08:39:49.720Z,9.20
2023-01-07T08:40:35.739Z,9.20
2023-01-07T08:41:21.919Z,9.20
2023-01-07T08:42:07.784Z,9.20
2023-01-07T08:42:53.716Z,9.20
2023-01-07T08:43:39.713Z,9.20
2023-01-07T08:44:25.672Z,9.20
2023-01-07T08:45:11.791Z,9.20
2023-01-07T08:45:57.731Z,9.20
2023-01-07T08:46:43.740Z,9.20
2023-01-07T08:47:29.691Z,9.20
2023-01-07T08:48:15.689Z,9.20
2023-01-07T08:49:01.797Z,9.20
2023-01-07T08:49:47.720Z,9.20
2023-01-07T08:50:33.893Z,9.30
2023-01-07T08:51:19.756Z,9.30
2023-01-07T08:52:05.700Z,9.30
2023-01-07T08:52:51.925Z,9.30
2023-01-07T08:53:37.775Z,9.30
2023-01-07T08:54:23.743Z,9.30
2023-01-07T08:55:09.731Z,9.30
2023-01-07T08:55:55.692Z,9.30
2023-01-07T08:56:41.783Z,9.30
2023-01-07T08:57:27.779Z,9.30
2023-01-07T08:58:13.788Z,9.30
2023-01-07T08:59:00.340Z,9.30
2023-01-07T08:59:45.740Z,9.30
2023-01-07T09:00:31.905Z,9.30
2023-01-07T09:01:18.081Z,9.30
2023-01-07T09:02:03.925Z,9.30
2023-01-07T09:02:49.838Z,9.30
2023-01-07T09:03:35.738Z,9.30
2023-01-07T09:04:21.879Z,9.30
2023-01-07T09:05:07.731Z,9.30
2023-01-07T09:05:53.743Z,9.30
2023-01-07T09:06:39.809Z,9.30
2023-01-07T09:07:25.736Z,9.30
2023-01-07T09:08:11.858Z,9.30
2023-01-07T09:08:57.807Z,9.30
2023-01-07T09:09:43.815Z,9.30
2023-01-07T09:10:29.782Z,9.30
2023-01-07T09:11:15.793Z,9.30
2023-01-07T09:12:01.825Z,9.20
2023-01-07T09:12:47.853Z,9.20
2023-01-07T09:13:33.834Z,9.20
2023-01-07T09:14:19.803Z,9.20
2023-01-07T09:15:05.837Z,9.20
2023-01-07T09:15:51.910Z,9.20
2023-01-07T09:16:38.029Z,9.30
2023-01-07T09:17:24.238Z,9.30
2023-01-07T09:18:09.821Z,9.30
2023-01-07T09:18:55.798Z,9.30
2023-01-07T09:19:41.781Z,9.30
2023-01-07T09:20:27.852Z,9.30
2023-01-07T09:21:13.854Z,9.40
2023-01-07T09:21:59.812Z,9.40
2023-01-07T09:22:45.800Z,9.40
2023-01-07T09:23:31.771Z,9.40
2023-01-07T09:24:17.827Z,9.40
2023-01-07T09:25:03.922Z,9.40
2023-01-07T09:25:49.872Z,9.40
2023-01-07T09:26:35.926Z,9.40
2023-01-07T09:27:22.002Z,9.40
2023-01-07T09:28:07.871Z,9.50
2023-01-07T09:28:53.801Z,9.50
2023-01-07T09:29:39.837Z,9.50
2023-01-07T09:30:25.857Z,9.50
2023-01-07T09:31:11.935Z,9.50
2023-01-07T09:31:58.001Z,9.50
2023-01-07T09:32:43.865Z,9.60
2023-01-07T09:33:29.840Z,9.60
2023-01-07T09:34:15.805Z,9.60
2023-01-07T09:35:01.848Z,9.70
2023-01-07T09:35:47.843Z,9.70
2023-01-07T09:36:33.941Z,9.70
2023-01-07T09:37:19.969Z,9.70
2023-01-07T09:38:05.878Z,9.70
2023-01-07T09:38:51.069Z,9.70
2023-01-07T09:39:37.816Z,9.80
2023-01-07T09:40:23.861Z,9.80
2023-01-07T09:41:09.907Z,9.80
2023-01-07T09:41:55.827Z,9.80
2023-01-07T09:42:41.900Z,9.90
2023-01-07T09:43:59.835Z,9.90
2023-01-07T09:44:13.935Z,9.90
2023-01-07T09:44:59.910Z,9.90
2023-01-07T09:45:45.917Z,10.00
2023-01-07T09:46:31.865Z,10.00
2023-01-07T09:47:17.873Z,10.00
2023-01-07T09:48:03.892Z,10.00
2023-01-07T09:48:49.911Z,10.00
2023-01-07T09:49:35.912Z,10.00
2023-01-07T09:50:24.938Z,10.00
2023-01-07T09:51:07.978Z,10.00
2023-01-07T09:51:53.977Z,10.00
2023-01-07T09:52:39.974Z,10.10
2023-01-07T09:53:25.931Z,10.10
2023-01-07T09:54:11.986Z,10.10
2023-01-07T09:54:57.151Z,10.10
2023-01-07T09:56:10.982Z,10.20
2023-01-07T09:56:29.875Z,10.20
2023-01-07T09:57:15.885Z,10.20
2023-01-07T09:58:01.917Z,10.20
2023-01-07T09:58:47.906Z,10.20
2023-01-07T09:59:33.983Z,10.30
2023-01-07T10:00:20.014Z,10.30
2023-01-07T10:01:06.056Z,10.30
2023-01-07T10:01:51.974Z,10.30
2023-01-07T10:02:37.959Z,10.30
2023-01-07T10:03:23.924Z,10.30
2023-01-07T10:04:10.084Z,10.40
2023-01-07T10:04:56.005Z,10.40
2023-01-07T10:05:41.890Z,10.40
2023-01-07T10:06:42.354Z,10.40
2023-01-07T10:07:14.045Z,10.40
2023-01-07T10:08:29.230Z,10.40
2023-01-07T10:08:45.922Z,10.50
2023-01-07T10:09:31.923Z,10.50
2023-01-07T10:10:18.000Z,10.50
2023-01-07T10:11:03.991Z,10.50